Victoria M — V7JG8 — position and weather

sailwx.info

Track history (hours):
 
Tides and Currents Weather Stations Pressure Air Temp Water Temp Dewpoint Dewpoint Depression Visibility Wind Speed Wind Dir Waves Ship Positions

Victoria M

Last reported at 2017-Nov-18 11:01 UTC. Time now 2017-Nov-21 14:00 UTC.
Position N 40°57' E 028°53'.

Length 185 m.

MMSI: 538002516.

Date/timePositionNaut miles runAvg speedWind from/ knotsBaromVisibWave heightAir tempDewpointWater temp
2017-Nov-18 11:01N 40°57' E 028°53'0 0.0
2017-Nov-18 10:49N 40°57' E 028°53'0 0.0
2017-Nov-18 05:34N 40°57' E 028°53'0 4.8
2017-Nov-18 05:30N 40°57' E 028°53'3 6.5
2017-Nov-18 05:00N 40°56' E 028°58'610.6
2017-Nov-18 04:28N 40°51' E 029°01'511.4
2017-Nov-18 04:00N 40°50' E 029°08'611.9
2017-Nov-18 03:30N 40°46' E 029°14'611.7
2017-Nov-18 03:00N 40°44' E 029°22'5 9.0
2017-Nov-18 02:27N 40°45' E 029°28'2 0.2
2017-Nov-17 12:46N 40°45' E 029°31'310.3
2017-Nov-17 12:25N 40°44' E 029°27'2 5.8
2017-Nov-17 12:00N 40°42' E 029°25'0 0.0
2017-Nov-16 12:02N 40°42' E 029°25'0 0.7
2017-Nov-16 11:59N 40°42' E 029°25'1 3.1
2017-Nov-16 11:30N 40°43' E 029°24'4 7.2
2017-Nov-16 11:00N 40°43' E 029°19'4 8.1
2017-Nov-16 10:30N 40°44' E 029°14'611.1
2017-Nov-16 10:00N 40°44' E 029°06'286 9.0
2017-Nov-15 02:09N 37°44' E 024°19'  
2017-Nov-10 03:39N 36°01' W 005°08'213.7
2017-Nov-10 03:30N 36°01' W 005°11'713.3
2017-Nov-10 03:00N 35°60' W 005°19'713.0
2017-Nov-10 02:30N 35°58' W 005°27'25910.7
2017-Nov-09 02:21N 38°13' W 010°03'512.9
2017-Nov-09 01:57N 38°18' W 010°04'613.1
2017-Nov-09 01:30N 38°24' W 010°06'713.2
2017-Nov-09 01:00N 38°30' W 010°08'613.0
2017-Nov-09 00:30N 38°37' W 010°10'612.8
2017-Nov-09 00:00N 38°43' W 010°11'713.4
2017-Nov-08 23:30N 38°50' W 010°11'713.6
2017-Nov-08 23:01N 38°56' W 010°12'713.5
2017-Nov-08 22:30N 39°03' W 010°11'813.5
2017-Nov-08 21:56N 39°11' W 010°11'  
Track history (hours):
 
Tides and Currents Weather Stations Pressure Air Temp Water Temp Dewpoint Dewpoint Depression Visibility Wind Speed Wind Dir Waves Ship Positions

Victoria M

Last reported at 2017-Nov-18 11:01 UTC. Time now 2017-Nov-21 14:00 UTC.
Position N 40°57' E 028°53'.

Length 185 m.

MMSI: 538002516.

Date/timePositionNaut miles runAvg speedWind from/ knotsBaromVisibWave heightAir tempDewpointWater temp
2017-Nov-18 11:01N 40°57' E 028°53'0 0.0
2017-Nov-18 10:49N 40°57' E 028°53'0 0.0
2017-Nov-18 05:34N 40°57' E 028°53'0 4.8
2017-Nov-18 05:30N 40°57' E 028°53'3 6.5
2017-Nov-18 05:00N 40°56' E 028°58'610.6
2017-Nov-18 04:28N 40°51' E 029°01'511.4
2017-Nov-18 04:00N 40°50' E 029°08'611.9
2017-Nov-18 03:30N 40°46' E 029°14'611.7
2017-Nov-18 03:00N 40°44' E 029°22'5 9.0
2017-Nov-18 02:27N 40°45' E 029°28'2 0.2
2017-Nov-17 12:46N 40°45' E 029°31'310.3
2017-Nov-17 12:25N 40°44' E 029°27'2 5.8
2017-Nov-17 12:00N 40°42' E 029°25'0 0.0
2017-Nov-16 12:02N 40°42' E 029°25'0 0.7
2017-Nov-16 11:59N 40°42' E 029°25'1 3.1
2017-Nov-16 11:30N 40°43' E 029°24'4 7.2
2017-Nov-16 11:00N 40°43' E 029°19'4 8.1
2017-Nov-16 10:30N 40°44' E 029°14'611.1
2017-Nov-16 10:00N 40°44' E 029°06'286 9.0
2017-Nov-15 02:09N 37°44' E 024°19'  
2017-Nov-10 03:39N 36°01' W 005°08'213.7
2017-Nov-10 03:30N 36°01' W 005°11'713.3
2017-Nov-10 03:00N 35°60' W 005°19'713.0
2017-Nov-10 02:30N 35°58' W 005°27'25910.7
2017-Nov-09 02:21N 38°13' W 010°03'512.9
2017-Nov-09 01:57N 38°18' W 010°04'613.1
2017-Nov-09 01:30N 38°24' W 010°06'713.2
2017-Nov-09 01:00N 38°30' W 010°08'613.0
2017-Nov-09 00:30N 38°37' W 010°10'612.8
2017-Nov-09 00:00N 38°43' W 010°11'713.4
2017-Nov-08 23:30N 38°50' W 010°11'713.6
2017-Nov-08 23:01N 38°56' W 010°12'713.5
2017-Nov-08 22:30N 39°03' W 010°11'813.5
2017-Nov-08 21:56N 39°11' W 010°11'  

Dump ship's entire track history